Time;durP1;ratioP1;P1;durP2;ratioP2;P2;SDS_P1;SDS_P2;PMS_P1;PMS_P2;Temp;Humidity;BMP_temperature;BMP_pressure;BME280_temperature;BME280_humidity;BME280_pressure;Samples;Min_cycle;Max_cycle;Signal;HPM_P1;HPM_P2
2024/04/07 00:00:02;;;;;;;1.45;0.88;;;;;;;-139.19;100.00;56970.53;5051066;28;20033;-65
2024/04/07 00:02:27;;;;;;;0.85;0.55;;;;;;;-139.19;100.00;56970.53;5036631;28;20421;-65
2024/04/07 00:04:52;;;;;;;2.17;1.10;;;;;;;-139.19;100.00;56970.53;5033147;28;20029;-65
2024/04/07 00:07:18;;;;;;;0.47;0.47;;;;;;;-139.19;100.00;56970.53;5033535;28;20080;-66
2024/04/07 00:09:43;;;;;;;0.40;0.40;;;;;;;-139.19;100.00;56970.53;5033311;28;20386;-66
2024/04/07 00:12:12;;;;;;;1.60;1.23;;;;;;;-139.19;100.00;56970.53;5033216;28;20021;-66
2024/04/07 00:14:37;;;;;;;4.97;2.08;;;;;;;-139.19;100.00;56970.53;5033483;28;20120;-66
2024/04/07 00:17:03;;;;;;;1.17;1.00;;;;;;;-139.19;100.00;56970.53;5033415;28;20172;-66
2024/04/07 00:19:29;;;;;;;0.75;0.75;;;;;;;-139.19;100.00;56970.53;5033108;28;20052;-66
2024/04/07 00:21:55;;;;;;;0.77;0.47;;;;;;;-139.19;100.00;56970.53;5033128;28;20461;-66
2024/04/07 00:24:20;;;;;;;0.75;0.75;;;;;;;-139.19;100.00;56970.53;5033136;28;20061;-66
2024/04/07 00:26:45;;;;;;;1.33;0.88;;;;;;;-139.19;100.00;56970.53;5034209;28;20376;-66
2024/04/07 00:29:11;;;;;;;0.45;0.45;;;;;;;-139.19;100.00;56970.53;5037175;28;20430;-66
2024/04/07 00:31:36;;;;;;;0.95;0.77;;;;;;;-139.19;100.00;56970.53;5038297;28;20088;-66
2024/04/07 00:34:01;;;;;;;0.65;0.55;;;;;;;-139.19;100.00;56970.53;5048491;28;20026;-66
2024/04/07 00:36:27;;;;;;;0.20;0.20;;;;;;;-139.19;100.00;56970.53;5036933;28;20041;-66
2024/04/07 00:38:52;;;;;;;3.08;1.17;;;;;;;-139.19;100.00;56970.53;5037443;28;20044;-66
2024/04/07 00:41:17;;;;;;;0.40;0.40;;;;;;;-139.19;100.00;56970.53;5036798;28;20025;-66
2024/04/07 00:43:43;;;;;;;0.80;0.63;;;;;;;-139.19;100.00;56970.53;5053044;28;20029;-66
2024/04/07 00:46:08;;;;;;;0.30;0.28;;;;;;;-139.19;100.00;56970.53;5055734;28;20021;-66
2024/04/07 00:48:34;;;;;;;0.52;0.52;;;;;;;-139.19;100.00;56970.53;5036902;28;20560;-66
2024/04/07 00:51:00;;;;;;;0.20;0.20;;;;;;;-139.19;100.00;56970.53;5040630;28;20067;-66
2024/04/07 00:53:26;;;;;;;0.20;0.20;;;;;;;-139.19;100.00;56970.53;5056119;28;20013;-66
2024/04/07 00:55:51;;;;;;;2.08;0.90;;;;;;;-139.19;100.00;56970.53;5053606;28;20032;-66
2024/04/07 00:58:18;;;;;;;0.20;0.20;;;;;;;-139.19;100.00;56970.53;5037865;28;20393;-66
2024/04/07 01:00:44;;;;;;;0.30;0.30;;;;;;;-139.19;100.00;56970.53;5044164;28;20041;-66
2024/04/07 01:03:11;;;;;;;1.75;0.60;;;;;;;-139.19;100.00;56970.53;5036196;28;20048;-66
2024/04/07 01:05:44;;;;;;;0.65;0.65;;;;;;;-139.19;100.00;56970.53;5040197;28;20158;-66
2024/04/07 01:08:11;;;;;;;0.28;0.28;;;;;;;-139.19;100.00;56970.53;5036430;28;20137;-66
2024/04/07 01:10:37;;;;;;;1.13;0.98;;;;;;;-139.19;100.00;56970.53;5036573;28;20014;-66
2024/04/07 01:13:04;;;;;;;1.25;0.93;;;;;;;-139.19;100.00;56970.53;5043663;28;20495;-66
2024/04/07 01:15:30;;;;;;;4.43;1.05;;;;;;;-139.19;100.00;56970.53;5052703;28;20037;-66
2024/04/07 01:17:57;;;;;;;0.35;0.35;;;;;;;-139.19;100.00;56970.53;5041684;28;20083;-66
2024/04/07 01:20:22;;;;;;;0.60;0.60;;;;;;;-139.19;100.00;56970.53;5043743;28;20025;-65
2024/04/07 01:22:50;;;;;;;0.95;0.63;;;;;;;-139.19;100.00;56970.53;5036109;28;20036;-66
2024/04/07 01:25:19;;;;;;;0.28;0.28;;;;;;;-139.19;100.00;56970.53;5036363;28;20017;-65
2024/04/07 01:27:56;;;;;;;0.50;0.50;;;;;;;-139.19;100.00;56970.53;5036202;28;20397;-65
2024/04/07 01:30:23;;;;;;;1.55;0.95;;;;;;;-139.19;100.00;56970.53;5052134;28;20096;-66
2024/04/07 01:32:48;;;;;;;1.55;0.95;;;;;;;-139.19;100.00;56970.53;5050573;28;20037;-65
2024/04/07 01:35:14;;;;;;;0.32;0.32;;;;;;;-139.19;100.00;56970.53;5052482;28;20179;-66
2024/04/07 01:37:40;;;;;;;0.90;0.68;;;;;;;-139.19;100.00;56970.53;5035865;28;20032;-66
2024/04/07 01:40:08;;;;;;;0.63;0.55;;;;;;;-139.19;100.00;56970.53;5051007;28;20029;-65
2024/04/07 01:42:35;;;;;;;0.32;0.32;;;;;;;-139.19;100.00;56970.53;5054210;28;20486;-65
2024/04/07 01:45:01;;;;;;;0.50;0.50;;;;;;;-139.19;100.00;56970.53;5048770;28;20022;-65
2024/04/07 01:47:26;;;;;;;0.95;0.80;;;;;;;-139.19;100.00;56970.53;5043280;28;20385;-65
2024/04/07 01:49:51;;;;;;;0.77;0.77;;;;;;;-139.19;100.00;56970.53;5053996;28;20630;-66
2024/04/07 01:52:17;;;;;;;0.25;0.25;;;;;;;-139.19;100.00;56970.53;5035671;28;20029;-65
2024/04/07 01:54:45;;;;;;;0.22;0.20;;;;;;;-139.19;100.00;56970.53;5035704;28;20036;-65
2024/04/07 01:57:11;;;;;;;0.38;0.30;;;;;;;-139.19;100.00;56970.53;5036053;28;20151;-66
2024/04/07 01:59:37;;;;;;;0.60;0.55;;;;;;;-139.19;100.00;56970.53;5035604;28;20541;-65
2024/04/07 02:02:03;;;;;;;0.20;0.20;;;;;;;-139.19;100.00;56970.53;5038626;28;20108;-66
2024/04/07 02:04:28;;;;;;;0.10;0.10;;;;;;;-139.19;100.00;56970.53;5073113;28;20480;-66
2024/04/07 02:06:55;;;;;;;0.00;0.00;;;;;;;-139.19;100.00;56970.53;5055541;28;20060;-65
2024/04/07 02:09:21;;;;;;;0.00;0.00;;;;;;;-139.19;100.00;56970.53;5055514;28;20496;-65
2024/04/07 02:11:47;;;;;;;0.00;0.00;;;;;;;-139.19;100.00;56970.53;5055495;28;20036;-65
2024/04/07 02:14:12;;;;;;;0.00;0.00;;;;;;;-139.19;100.00;56970.53;5055290;28;20091;-65
2024/04/07 02:16:38;;;;;;;0.00;0.00;;;;;;;-139.19;100.00;56970.53;5055032;28;20115;-66
2024/04/07 02:19:03;;;;;;;0.20;0.10;;;;;;;-139.19;100.00;56970.53;5055097;28;20096;-66
2024/04/07 02:21:28;;;;;;;0.15;0.15;;;;;;;-139.19;100.00;56970.53;5055004;28;20440;-65
2024/04/07 02:23:54;;;;;;;0.22;0.20;;;;;;;-139.19;100.00;56970.53;5055002;28;20032;-66
2024/04/07 02:26:20;;;;;;;0.68;0.43;;;;;;;-139.19;100.00;56970.53;5055330;28;20029;-66
2024/04/07 02:28:45;;;;;;;0.00;0.00;;;;;;;-139.19;100.00;56970.53;5055238;28;20060;-66
2024/04/07 02:31:10;;;;;;;0.10;0.10;;;;;;;-139.19;100.00;56970.53;5045702;28;20033;-66
2024/04/07 02:33:36;;;;;;;0.00;0.00;;;;;;;-139.19;100.00;56970.53;5038921;28;20388;-66
2024/04/07 02:36:01;;;;;;;0.75;0.38;;;;;;;-139.19;100.00;56970.53;5041214;28;20029;-66
2024/04/07 02:38:26;;;;;;;0.05;0.05;;;;;;;-139.19;100.00;56970.53;5065594;28;20027;-66
2024/04/07 02:40:52;;;;;;;0.10;0.10;;;;;;;-139.19;100.00;56970.53;5074925;28;20051;-66
2024/04/07 02:43:17;;;;;;;0.17;0.17;;;;;;;-139.19;100.00;56970.53;5053079;28;20103;-66
2024/04/07 02:48:26;;;;;;;0.00;0.00;;;;;;;-139.19;100.00;56970.53;5043043;28;20079;-65
2024/04/07 02:50:53;;;;;;;0.10;0.10;;;;;;;-139.19;100.00;56970.53;5044742;28;20084;-66
2024/04/07 02:53:18;;;;;;;0.00;0.00;;;;;;;-139.19;100.00;56970.53;5053830;28;20460;-66
2024/04/07 02:55:44;;;;;;;0.28;0.17;;;;;;;-139.19;100.00;56970.53;5053744;28;20029;-66
2024/04/07 02:58:09;;;;;;;0.00;0.00;;;;;;;-139.19;100.00;56970.53;5051932;28;20392;-67
2024/04/07 03:00:35;;;;;;;0.00;0.00;;;;;;;-139.19;100.00;56970.53;5038239;28;20059;-66
2024/04/07 03:03:00;;;;;;;0.20;0.20;;;;;;;-139.19;100.00;56970.53;5053077;28;20121;-65
2024/04/07 03:05:25;;;;;;;0.17;0.10;;;;;;;-139.19;100.00;56970.53;5051707;28;20037;-66
2024/04/07 03:07:51;;;;;;;0.20;0.10;;;;;;;-139.19;100.00;56970.53;5048870;28;20028;-65
2024/04/07 03:10:18;;;;;;;0.00;0.00;;;;;;;-139.19;100.00;56970.53;5073001;28;20051;-66
2024/04/07 03:12:44;;;;;;;0.00;0.00;;;;;;;-139.19;100.00;56970.53;5041605;28;20108;-65
2024/04/07 03:15:09;;;;;;;0.20;0.20;;;;;;;-139.19;100.00;56970.53;5043225;28;20168;-65
2024/04/07 03:17:34;;;;;;;0.10;0.10;;;;;;;-139.19;100.00;56970.53;5063450;28;20028;-65
2024/04/07 03:20:00;;;;;;;0.15;0.15;;;;;;;-139.19;100.00;56970.53;5073427;28;20021;-65
2024/04/07 03:22:25;;;;;;;0.47;0.32;;;;;;;-139.19;100.00;56970.53;5065133;28;20149;-65
2024/04/07 03:24:51;;;;;;;0.00;0.00;;;;;;;-139.19;100.00;56970.53;5072840;28;20039;-65
2024/04/07 03:27:16;;;;;;;0.00;0.00;;;;;;;-139.19;100.00;56970.53;5069832;28;20110;-66
2024/04/07 03:29:41;;;;;;;0.10;0.10;;;;;;;-139.19;100.00;56970.53;5062650;28;20029;-66
2024/04/07 03:32:07;;;;;;;0.13;0.13;;;;;;;-139.19;100.00;56970.53;5063280;28;20138;-66
2024/04/07 03:34:32;;;;;;;0.00;0.00;;;;;;;-139.19;100.00;56970.53;5061586;28;20099;-66
2024/04/07 03:36:57;;;;;;;0.10;0.10;;;;;;;-139.19;100.00;56970.53;5067129;28;20040;-66
2024/04/07 03:39:23;;;;;;;0.40;0.30;;;;;;;-139.19;100.00;56970.53;5053578;28;20021;-66
2024/04/07 03:41:48;;;;;;;0.20;0.20;;;;;;;-139.19;100.00;56970.53;5058643;28;20447;-67
2024/04/07 03:44:14;;;;;;;1.00;0.55;;;;;;;-139.19;100.00;56970.53;5056216;28;20024;-66
2024/04/07 03:46:39;;;;;;;0.10;0.10;;;;;;;-139.19;100.00;56970.53;5064126;28;20025;-65
2024/04/07 03:49:05;;;;;;;0.00;0.00;;;;;;;-139.19;100.00;56970.53;5066811;28;20416;-66
2024/04/07 03:51:30;;;;;;;0.22;0.22;;;;;;;-139.19;100.00;56970.53;5061877;28;20524;-66
2024/04/07 03:53:56;;;;;;;0.05;0.05;;;;;;;-139.19;100.00;56970.53;5054365;28;20021;-65
2024/04/07 03:56:21;;;;;;;0.20;0.20;;;;;;;-139.19;100.00;56970.53;5070814;28;20081;-65
2024/04/07 03:58:47;;;;;;;0.00;0.00;;;;;;;-139.19;100.00;56970.53;5051498;28;20040;-65
2024/04/07 04:01:15;;;;;;;0.20;0.20;;;;;;;-139.19;100.00;56970.53;5066058;28;20161;-65
2024/04/07 04:03:43;;;;;;;0.00;0.00;;;;;;;-139.19;100.00;56970.53;5073390;28;20514;-66
2024/04/07 04:06:08;;;;;;;0.17;0.17;;;;;;;-139.19;100.00;56970.53;5073142;28;20017;-66
2024/04/07 04:08:34;;;;;;;30.42;0.68;;;;;;;-139.19;100.00;56970.53;5073266;28;20111;-66
2024/04/07 04:11:06;;;;;;;0.43;0.30;;;;;;;-139.19;100.00;56970.53;5073443;28;20021;-65
2024/04/07 04:13:35;;;;;;;5.38;0.65;;;;;;;-139.19;100.00;56970.53;5063359;28;20037;-66
2024/04/07 04:16:01;;;;;;;1.23;0.70;;;;;;;-139.19;100.00;56970.53;5037090;28;20037;-66
2024/04/07 04:18:27;;;;;;;0.00;0.00;;;;;;;-139.19;100.00;56970.53;5057728;28;20028;-65
2024/04/07 04:20:53;;;;;;;0.20;0.20;;;;;;;-139.19;100.00;56970.53;5065820;28;20028;-65
2024/04/07 04:23:18;;;;;;;0.00;0.00;;;;;;;-139.19;100.00;56970.53;5054115;28;20040;-67
2024/04/07 04:25:51;;;;;;;0.00;0.00;;;;;;;-139.19;100.00;56970.53;5059534;28;20029;-65
2024/04/07 04:28:17;;;;;;;0.10;0.10;;;;;;;-139.19;100.00;56970.53;5057315;28;20028;-65
2024/04/07 04:30:53;;;;;;;0.20;0.20;;;;;;;-139.19;100.00;56970.53;5068589;28;20103;-65
2024/04/07 04:33:20;;;;;;;0.00;0.00;;;;;;;-139.19;100.00;56970.53;5055985;28;20104;-65
2024/04/07 04:35:45;;;;;;;1.15;0.45;;;;;;;-139.19;100.00;56970.53;5052978;28;20032;-65
2024/04/07 04:38:11;;;;;;;0.10;0.10;;;;;;;-139.19;100.00;56970.53;5053426;28;20029;-65
2024/04/07 04:40:36;;;;;;;0.85;0.28;;;;;;;-139.19;100.00;56970.53;5053053;28;20436;-66
2024/04/07 04:43:01;;;;;;;0.05;0.05;;;;;;;-139.19;100.00;56970.53;5056057;28;20419;-65
2024/04/07 04:45:27;;;;;;;0.00;0.00;;;;;;;-139.19;100.00;56970.53;5065740;28;20017;-65
2024/04/07 04:47:52;;;;;;;0.05;0.05;;;;;;;-139.19;100.00;56970.53;5053090;28;20389;-66
2024/04/07 04:50:17;;;;;;;0.50;0.40;;;;;;;-139.19;100.00;56970.53;5062075;28;20056;-73
2024/04/07 04:52:43;;;;;;;0.08;0.08;;;;;;;-139.19;100.00;56970.53;5051120;28;20032;-66
2024/04/07 04:55:08;;;;;;;0.03;0.03;;;;;;;-139.19;100.00;56970.53;5052727;28;20056;-66
2024/04/07 04:57:33;;;;;;;0.05;0.05;;;;;;;-139.19;100.00;56970.53;5052735;28;20036;-66
2024/04/07 04:59:59;;;;;;;1.20;0.70;;;;;;;-139.19;100.00;56970.53;5052758;28;20057;-66
2024/04/07 05:02:24;;;;;;;0.10;0.10;;;;;;;-139.19;100.00;56970.53;5051013;28;20124;-66
2024/04/07 05:04:52;;;;;;;0.98;0.65;;;;;;;-139.19;100.00;56970.53;5052857;28;20468;-66
2024/04/07 05:07:17;;;;;;;0.35;0.28;;;;;;;-139.19;100.00;56970.53;5052727;28;20021;-66
2024/04/07 05:09:46;;;;;;;0.10;0.10;;;;;;;-139.19;100.00;56970.53;5052612;28;20421;-66
2024/04/07 05:12:11;;;;;;;0.20;0.20;;;;;;;-139.19;100.00;56970.53;5052675;28;20021;-66
2024/04/07 05:14:36;;;;;;;0.55;0.55;;;;;;;-139.19;100.00;56970.53;5056412;28;20358;-66
2024/04/07 05:17:01;;;;;;;0.00;0.00;;;;;;;-139.19;100.00;56970.53;5056296;28;20025;-66
2024/04/07 05:19:27;;;;;;;0.10;0.10;;;;;;;-139.19;100.00;56970.53;5056309;28;20032;-66
2024/04/07 05:21:52;;;;;;;0.00;0.00;;;;;;;-139.19;100.00;56970.53;5056290;28;20029;-66
2024/04/07 05:24:18;;;;;;;1.75;0.47;;;;;;;-139.19;100.00;56970.53;5056198;28;20052;-66
2024/04/07 05:26:43;;;;;;;0.52;0.28;;;;;;;-139.19;100.00;56970.53;5056440;28;20031;-66
2024/04/07 05:29:08;;;;;;;0.32;0.32;;;;;;;-139.19;100.00;56970.53;5056059;28;20086;-65
2024/04/07 05:31:33;;;;;;;0.35;0.35;;;;;;;-139.19;100.00;56970.53;5056074;28;20043;-66
2024/04/07 05:33:59;;;;;;;0.13;0.10;;;;;;;-139.19;100.00;56970.53;5056037;28;20029;-66
2024/04/07 05:36:24;;;;;;;0.10;0.10;;;;;;;-139.19;100.00;56970.53;5056124;28;20025;-66
2024/04/07 05:38:50;;;;;;;0.00;0.00;;;;;;;-139.19;100.00;56970.53;5055930;28;20020;-66
2024/04/07 05:41:15;;;;;;;0.47;0.35;;;;;;;-139.19;100.00;56970.53;5056104;28;20021;-66
2024/04/07 05:43:40;;;;;;;0.20;0.17;;;;;;;-139.19;100.00;56970.53;5055820;28;20385;-66
2024/04/07 05:46:08;;;;;;;0.10;0.10;;;;;;;-139.19;100.00;56970.53;5055848;28;20469;-66
2024/04/07 05:48:34;;;;;;;0.00;0.00;;;;;;;-139.19;100.00;56970.53;5055823;28;20021;-66
2024/04/07 05:50:59;;;;;;;0.32;0.32;;;;;;;-139.19;100.00;56970.53;5055980;28;20483;-66
2024/04/07 05:53:25;;;;;;;0.20;0.20;;;;;;;-139.19;100.00;56970.53;5055611;28;20050;-66
2024/04/07 05:55:50;;;;;;;0.35;0.35;;;;;;;-139.19;100.00;56970.53;5055575;28;20104;-66
2024/04/07 05:58:16;;;;;;;0.00;0.00;;;;;;;-139.19;100.00;56970.53;5055817;28;20056;-65
2024/04/07 06:00:42;;;;;;;0.00;0.00;;;;;;;-139.19;100.00;56970.53;5055534;28;20064;-65
2024/04/07 06:03:07;;;;;;;0.43;0.30;;;;;;;-139.19;100.00;56970.53;5055332;28;20099;-65
2024/04/07 06:05:36;;;;;;;1.08;0.98;;;;;;;-139.19;100.00;56970.53;5055338;28;20029;-65
2024/04/07 06:08:05;;;;;;;0.30;0.30;;;;;;;-139.19;100.00;56970.53;5055584;28;20448;-65
2024/04/07 06:10:31;;;;;;;0.10;0.10;;;;;;;-139.19;100.00;56970.53;5055590;28;20528;-66
2024/04/07 06:12:56;;;;;;;0.10;0.10;;;;;;;-139.19;100.00;56970.53;5055550;28;20056;-65
2024/04/07 06:15:22;;;;;;;2.28;0.52;;;;;;;-139.19;100.00;56970.53;5055164;28;20074;-66
2024/04/07 06:17:49;;;;;;;0.10;0.10;;;;;;;-139.19;100.00;56970.53;5055514;28;20383;-66
2024/04/07 06:20:14;;;;;;;0.25;0.20;;;;;;;-139.19;100.00;56970.53;5055376;28;20032;-66
2024/04/07 06:22:39;;;;;;;0.10;0.10;;;;;;;-139.19;100.00;56970.53;5055121;28;20025;-66
2024/04/07 06:25:05;;;;;;;0.10;0.10;;;;;;;-139.19;100.00;56970.53;5054142;28;20112;-66
2024/04/07 06:27:31;;;;;;;0.20;0.20;;;;;;;-139.19;100.00;56970.53;5055268;28;20056;-66
2024/04/07 06:29:58;;;;;;;0.20;0.20;;;;;;;-139.19;100.00;56970.53;5054931;28;20028;-66
2024/04/07 06:32:25;;;;;;;0.20;0.20;;;;;;;-139.19;100.00;56970.53;5055132;28;20056;-66
2024/04/07 06:34:51;;;;;;;0.10;0.10;;;;;;;-139.19;100.00;56970.53;5054914;28;20024;-66
2024/04/07 06:37:16;;;;;;;0.08;0.03;;;;;;;-139.19;100.00;56970.53;5054093;28;20037;-66
2024/04/07 06:39:41;;;;;;;0.77;0.45;;;;;;;-139.19;100.00;56970.53;5054220;28;20037;-66
2024/04/07 06:42:06;;;;;;;1.20;0.52;;;;;;;-139.19;100.00;56970.53;5054554;28;20416;-66
2024/04/07 06:44:32;;;;;;;0.10;0.10;;;;;;;-139.19;100.00;56970.53;5053662;28;20028;-66
2024/04/07 06:46:57;;;;;;;0.30;0.30;;;;;;;-139.19;100.00;56970.53;5052574;28;20029;-66
2024/04/07 06:49:23;;;;;;;0.20;0.20;;;;;;;-139.19;100.00;56970.53;5052673;28;20032;-65
2024/04/07 06:51:48;;;;;;;0.10;0.10;;;;;;;-139.19;100.00;56970.53;5052630;28;20128;-66
2024/04/07 06:54:13;;;;;;;0.10;0.10;;;;;;;-139.19;100.00;56970.53;5052574;28;20025;-66
2024/04/07 06:56:39;;;;;;;0.28;0.28;;;;;;;-139.19;100.00;56970.53;5052290;28;20313;-66
2024/04/07 06:59:04;;;;;;;0.00;0.00;;;;;;;-139.19;100.00;56970.53;5052810;28;20025;-67
2024/04/07 07:01:30;;;;;;;0.20;0.17;;;;;;;-139.19;100.00;56970.53;5046994;28;20427;-66
2024/04/07 07:03:55;;;;;;;0.03;0.03;;;;;;;-139.19;100.00;56970.53;5039117;28;20494;-66
2024/04/07 07:06:20;;;;;;;1.67;0.65;;;;;;;-139.19;100.00;56970.53;5051618;28;20431;-66
2024/04/07 07:08:46;;;;;;;0.17;0.13;;;;;;;-139.19;100.00;56970.53;5051952;28;20480;-66
2024/04/07 07:11:12;;;;;;;0.10;0.10;;;;;;;-139.19;100.00;56970.53;5034255;28;20033;-66
2024/04/07 07:13:42;;;;;;;0.10;0.10;;;;;;;-139.19;100.00;56970.53;5033855;28;20018;-65
2024/04/07 07:16:08;;;;;;;3.85;0.90;;;;;;;-139.19;100.00;56970.53;5034156;28;20026;-65
2024/04/07 07:18:34;;;;;;;0.15;0.13;;;;;;;-139.19;100.00;56970.53;5046805;28;20477;-65
2024/04/07 07:20:59;;;;;;;0.30;0.30;;;;;;;-139.19;100.00;56970.53;5054011;28;20037;-65
2024/04/07 07:23:24;;;;;;;0.80;0.40;;;;;;;-139.19;100.00;56970.53;5054210;28;20444;-65
2024/04/07 07:25:52;;;;;;;0.60;0.40;;;;;;;-139.19;100.00;56970.53;5053945;28;20020;-65
2024/04/07 07:28:17;;;;;;;0.30;0.30;;;;;;;-139.19;100.00;56970.53;5053793;28;20017;-66
2024/04/07 07:30:43;;;;;;;0.20;0.10;;;;;;;-139.19;100.00;56970.53;5053973;28;20112;-66
2024/04/07 07:33:08;;;;;;;1.42;0.38;;;;;;;-139.19;100.00;56970.53;5054065;28;20036;-66
2024/04/07 07:35:34;;;;;;;0.75;0.32;;;;;;;-139.19;100.00;56970.53;5041399;28;20108;-66
2024/04/07 07:38:00;;;;;;;0.10;0.10;;;;;;;-139.19;100.00;56970.53;5034003;28;20381;-66
2024/04/07 07:40:25;;;;;;;0.47;0.25;;;;;;;-139.19;100.00;56970.53;5033797;28;20025;-66
2024/04/07 07:42:50;;;;;;;1.42;0.35;;;;;;;-139.19;100.00;56970.53;5033772;28;20029;-66
2024/04/07 07:45:20;;;;;;;0.30;0.20;;;;;;;-139.19;100.00;56970.53;5033749;28;20071;-66
2024/04/07 07:47:46;;;;;;;0.90;0.22;;;;;;;-139.19;100.00;56970.53;5033546;28;20029;-65
2024/04/07 07:50:12;;;;;;;0.30;0.30;;;;;;;-139.19;100.00;56970.53;5033822;28;20026;-65
2024/04/07 07:52:37;;;;;;;0.25;0.20;;;;;;;-139.19;100.00;56970.53;5033556;28;20056;-65
2024/04/07 07:55:03;;;;;;;0.38;0.20;;;;;;;-139.19;100.00;56970.53;5033485;28;20057;-65
2024/04/07 07:57:28;;;;;;;0.10;0.10;;;;;;;-139.19;100.00;56970.53;5033716;28;20392;-65
2024/04/07 07:59:53;;;;;;;0.30;0.30;;;;;;;-139.19;100.00;56970.53;5033498;28;20509;-65
2024/04/07 08:02:18;;;;;;;0.20;0.20;;;;;;;-139.19;100.00;56970.53;5033485;28;20049;-65
2024/04/07 08:04:44;;;;;;;1.60;0.40;;;;;;;-139.19;100.00;56970.53;5033396;28;20116;-65
2024/04/07 08:07:09;;;;;;;0.30;0.30;;;;;;;-139.19;100.00;56970.53;5033338;28;20022;-65
2024/04/07 08:09:35;;;;;;;0.43;0.43;;;;;;;-139.19;100.00;56970.53;5044626;28;20070;-65
2024/04/07 08:12:00;;;;;;;0.10;0.10;;;;;;;-139.19;100.00;56970.53;5053189;28;20033;-65
2024/04/07 08:14:26;;;;;;;0.68;0.45;;;;;;;-139.19;100.00;56970.53;5053206;28;20021;-65
2024/04/07 08:16:51;;;;;;;0.30;0.30;;;;;;;-139.19;100.00;56970.53;5053163;28;20025;-66
2024/04/07 08:19:17;;;;;;;0.50;0.25;;;;;;;-139.19;100.00;56970.53;5053086;28;20027;-66
2024/04/07 08:21:42;;;;;;;0.17;0.17;;;;;;;-139.19;100.00;56970.53;5053126;28;20044;-66
2024/04/07 08:24:07;;;;;;;1.00;0.43;;;;;;;-139.19;100.00;56970.53;5053079;28;20087;-66
2024/04/07 08:26:33;;;;;;;0.55;0.38;;;;;;;-139.19;100.00;56970.53;5053100;28;20044;-66
2024/04/07 08:28:58;;;;;;;0.10;0.10;;;;;;;-139.19;100.00;56970.53;5053119;28;20065;-66
2024/04/07 08:31:23;;;;;;;0.13;0.13;;;;;;;-139.19;100.00;56970.53;5053121;28;20083;-66
2024/04/07 08:33:49;;;;;;;0.63;0.50;;;;;;;-139.19;100.00;56970.53;5053015;28;20428;-66
2024/04/07 08:36:14;;;;;;;0.85;0.43;;;;;;;-139.19;100.00;56970.53;5052814;28;20127;-66
2024/04/07 08:38:41;;;;;;;0.10;0.10;;;;;;;-139.19;100.00;56970.53;5052942;28;20021;-66
2024/04/07 08:41:10;;;;;;;1.85;0.32;;;;;;;-139.19;100.00;56970.53;5053192;28;20047;-66
2024/04/07 08:43:38;;;;;;;1.27;0.38;;;;;;;-139.19;100.00;56970.53;5052904;28;20096;-66
2024/04/07 08:46:10;;;;;;;0.25;0.25;;;;;;;-139.19;100.00;56970.53;5052859;28;20049;-66
2024/04/07 08:48:38;;;;;;;0.10;0.10;;;;;;;-139.19;100.00;56970.53;5055531;28;20036;-66
2024/04/07 08:51:07;;;;;;;1.73;0.35;;;;;;;-139.19;100.00;56970.53;5056809;28;20503;-66
2024/04/07 08:53:32;;;;;;;0.43;0.32;;;;;;;-139.19;100.00;56970.53;5056785;28;20374;-66
2024/04/07 08:55:58;;;;;;;0.30;0.20;;;;;;;-139.19;100.00;56970.53;5056668;28;20028;-66
2024/04/07 08:58:24;;;;;;;0.13;0.13;;;;;;;-139.19;100.00;56970.53;5056650;28;20021;-66
2024/04/07 09:00:52;;;;;;;0.22;0.22;;;;;;;-139.19;100.00;56970.53;5056894;28;20035;-66
2024/04/07 09:03:18;;;;;;;1.33;0.50;;;;;;;-139.19;100.00;56970.53;5056457;28;20059;-66
2024/04/07 09:05:44;;;;;;;2.03;0.52;;;;;;;-139.19;100.00;56970.53;5056435;28;20016;-66
2024/04/07 09:08:09;;;;;;;0.30;0.22;;;;;;;-139.19;100.00;56970.53;5056531;28;20036;-66
2024/04/07 09:10:34;;;;;;;0.40;0.40;;;;;;;-139.19;100.00;56970.53;5037286;28;20037;-66
2024/04/07 09:13:00;;;;;;;0.52;0.47;;;;;;;-139.19;100.00;56970.53;5036532;28;20033;-66
2024/04/07 09:15:25;;;;;;;2.35;0.73;;;;;;;-139.19;100.00;56970.53;5036343;28;20421;-66
2024/04/07 09:17:52;;;;;;;0.45;0.30;;;;;;;-139.19;100.00;56970.53;5036340;28;20034;-66
2024/04/07 09:20:20;;;;;;;0.47;0.40;;;;;;;-139.19;100.00;56970.53;5036383;28;20029;-66
2024/04/07 09:22:49;;;;;;;1.27;0.43;;;;;;;-139.19;100.00;56970.53;5036262;28;20032;-66
2024/04/07 09:25:14;;;;;;;2.15;0.50;;;;;;;-139.19;100.00;56970.53;5036425;28;20405;-66
2024/04/07 09:27:41;;;;;;;0.10;0.10;;;;;;;-139.19;100.00;56970.53;5036583;28;20075;-66
2024/04/07 09:30:07;;;;;;;0.30;0.22;;;;;;;-139.19;100.00;56970.53;5036037;28;20029;-66
2024/04/07 09:32:32;;;;;;;0.43;0.38;;;;;;;-139.19;100.00;56970.53;5036063;28;20037;-66
2024/04/07 09:34:58;;;;;;;0.10;0.10;;;;;;;-139.19;100.00;56970.53;5036155;28;20398;-66
2024/04/07 09:37:23;;;;;;;0.55;0.20;;;;;;;-139.19;100.00;56970.53;5036018;28;20068;-66
2024/04/07 09:39:48;;;;;;;0.68;0.35;;;;;;;-139.19;100.00;56970.53;5036107;28;20454;-66
2024/04/07 09:42:20;;;;;;;0.68;0.35;;;;;;;-139.19;100.00;56970.53;5035852;28;20027;-66
2024/04/07 09:44:46;;;;;;;0.73;0.20;;;;;;;-139.19;100.00;56970.53;5036143;28;20478;-66
2024/04/07 09:47:14;;;;;;;0.17;0.17;;;;;;;-139.19;100.00;56970.53;5035893;28;20100;-66
2024/04/07 09:49:40;;;;;;;0.55;0.20;;;;;;;-139.19;100.00;56970.53;5035837;28;20037;-66
2024/04/07 09:52:08;;;;;;;1.90;0.60;;;;;;;-139.19;100.00;56970.53;5036002;28;20029;-66
2024/04/07 09:54:41;;;;;;;8.27;0.65;;;;;;;-139.19;100.00;56970.53;5035930;28;20500;-66
2024/04/07 09:57:08;;;;;;;0.38;0.32;;;;;;;-139.19;100.00;56970.53;5035564;28;20118;-66
2024/04/07 09:59:36;;;;;;;0.25;0.15;;;;;;;-139.19;100.00;56970.53;5034281;28;20026;-66
2024/04/07 10:02:03;;;;;;;2.25;0.55;;;;;;;-139.19;100.00;56970.53;5035390;28;20100;-66
2024/04/07 10:04:29;;;;;;;1.35;0.55;;;;;;;-139.19;100.00;56970.53;5035481;28;20031;-65
2024/04/07 10:06:55;;;;;;;0.88;0.30;;;;;;;-139.19;100.00;56970.53;5035513;28;20021;-65
2024/04/07 10:09:21;;;;;;;0.63;0.40;;;;;;;-139.19;100.00;56970.53;5044446;28;20041;-65
2024/04/07 10:11:48;;;;;;;0.75;0.30;;;;;;;-139.19;100.00;56970.53;5055503;28;20512;-65
2024/04/07 10:14:15;;;;;;;1.13;0.50;;;;;;;-139.19;100.00;56970.53;5055222;28;20056;-66
2024/04/07 10:16:43;;;;;;;2.63;0.70;;;;;;;-139.19;100.00;56970.53;5055152;28;20384;-66
2024/04/07 10:19:08;;;;;;;0.70;0.25;;;;;;;-139.19;100.00;56970.53;5055192;28;20366;-66
2024/04/07 10:21:33;;;;;;;0.52;0.28;;;;;;;-139.19;100.00;56970.53;5055121;28;20032;-66
2024/04/07 10:23:59;;;;;;;1.17;0.30;;;;;;;-139.19;100.00;56970.53;5055364;28;20037;-66
2024/04/07 10:26:28;;;;;;;0.40;0.20;;;;;;;-139.19;100.00;56970.53;5055039;28;20477;-66
2024/04/07 10:28:56;;;;;;;0.20;0.20;;;;;;;-139.19;100.00;56970.53;5055280;28;20508;-66
2024/04/07 10:31:32;;;;;;;0.30;0.30;;;;;;;-139.19;100.00;56970.53;5055054;28;20442;-66
2024/04/07 10:33:57;;;;;;;0.47;0.40;;;;;;;-139.19;100.00;56970.53;5055125;28;20079;-66
2024/04/07 10:36:25;;;;;;;0.28;0.28;;;;;;;-139.19;100.00;56970.53;5054860;28;20416;-66
2024/04/07 10:38:57;;;;;;;1.10;0.52;;;;;;;-139.19;100.00;56970.53;5055086;28;20032;-66
2024/04/07 10:41:33;;;;;;;0.40;0.40;;;;;;;-139.19;100.00;56970.53;5054659;28;20054;-66
2024/04/07 10:44:00;;;;;;;0.38;0.38;;;;;;;-139.19;100.00;56970.53;5054726;28;20075;-66
2024/04/07 10:46:26;;;;;;;0.82;0.17;;;;;;;-139.19;100.00;56970.53;5054671;28;20073;-66
2024/04/07 10:48:53;;;;;;;0.40;0.40;;;;;;;-139.19;100.00;56970.53;5054676;28;20028;-66
2024/04/07 10:51:19;;;;;;;1.10;0.30;;;;;;;-139.19;100.00;56970.53;5054790;28;20380;-66
2024/04/07 10:53:46;;;;;;;1.35;0.50;;;;;;;-139.19;100.00;56970.53;5054709;28;20028;-66
2024/04/07 10:56:11;;;;;;;0.10;0.10;;;;;;;-139.19;100.00;56970.53;5054398;28;20078;-65
2024/04/07 10:58:38;;;;;;;3.08;0.52;;;;;;;-139.19;100.00;56970.53;5054454;28;20024;-65
2024/04/07 11:01:04;;;;;;;0.10;0.10;;;;;;;-139.19;100.00;56970.53;5054425;28;20028;-66
2024/04/07 11:03:30;;;;;;;0.47;0.30;;;;;;;-139.19;100.00;56970.53;5054259;28;20061;-65
2024/04/07 11:06:00;;;;;;;0.28;0.28;;;;;;;-139.19;100.00;56970.53;5054550;28;20043;-65